Time;durP1;ratioP1;P1;durP2;ratioP2;P2;SDS_P1;SDS_P2;PMS_P1;PMS_P2;Temp;Humidity;BMP_temperature;BMP_pressure;BME280_temperature;BME280_humidity;BME280_pressure;Samples;Min_cycle;Max_cycle;Signal;HPM_P1;HPM_P2
2024/02/16 00:01:41;;;;;;;5.90;2.35;;;;;;;13.79;83.22;99318.19;5053687;28;20060;-81
2024/02/16 00:04:07;;;;;;;3.63;2.35;;;;;;;13.79;82.82;99322.63;5053339;28;20049;-80
2024/02/16 00:06:34;;;;;;;6.72;2.72;;;;;;;13.78;82.81;99324.44;5052998;28;20045;-80
2024/02/16 00:09:01;;;;;;;5.97;2.78;;;;;;;13.79;82.59;99322.63;5053066;28;20486;-80
2024/02/16 00:11:28;;;;;;;5.57;2.33;;;;;;;13.80;82.88;99321.69;5053220;28;20041;-80
2024/02/16 00:13:55;;;;;;;4.30;1.90;;;;;;;13.80;82.48;99321.69;5052654;28;20052;-81
2024/02/16 00:16:22;;;;;;;5.63;2.72;;;;;;;13.82;82.51;99327.69;5052801;28;20525;-80
2024/02/16 00:18:49;;;;;;;4.15;2.10;;;;;;;13.82;82.24;99319.75;5052967;28;20502;-80
2024/02/16 00:21:16;;;;;;;7.30;2.40;;;;;;;13.84;82.81;99304.63;5053179;28;20386;-79
2024/02/16 00:23:44;;;;;;;5.53;2.00;;;;;;;13.87;82.71;99303.53;5052971;28;20475;-83
2024/02/16 00:26:11;;;;;;;4.80;2.20;;;;;;;13.86;82.49;99310.63;5052806;28;20053;-80
2024/02/16 00:28:37;;;;;;;6.20;2.00;;;;;;;13.87;82.11;99301.72;5053007;28;20057;-80
2024/02/16 00:31:05;;;;;;;6.07;2.30;;;;;;;13.86;81.90;99301.84;5052738;28;20049;-81
2024/02/16 00:33:33;;;;;;;6.13;2.20;;;;;;;13.86;81.87;99300.03;5052817;28;20065;-81
2024/02/16 00:36:00;;;;;;;4.78;2.38;;;;;;;13.85;81.79;99301.00;5034942;28;20060;-80
2024/02/16 00:38:27;;;;;;;6.10;2.80;;;;;;;13.83;81.52;99300.25;5052211;28;20094;-80
2024/02/16 00:40:53;;;;;;;6.05;2.40;;;;;;;13.81;81.64;99305.69;5052768;28;20107;-80
2024/02/16 00:43:20;;;;;;;5.10;2.13;;;;;;;13.79;81.43;99293.53;5052362;28;20136;-81
2024/02/16 00:45:48;;;;;;;6.80;2.35;;;;;;;13.78;81.44;99299.78;5119300;22;20044;-78
2024/02/16 00:48:15;;;;;;;4.15;2.60;;;;;;;13.74;81.81;99290.41;5052760;28;20057;-78
2024/02/16 00:50:42;;;;;;;6.88;2.60;;;;;;;13.70;81.11;99296.88;5053248;28;20094;-77
2024/02/16 00:53:10;;;;;;;4.20;2.22;;;;;;;13.70;81.54;99296.88;5053192;28;20128;-77
2024/02/16 00:55:37;;;;;;;4.72;2.22;;;;;;;13.70;81.50;99302.19;5052404;28;20048;-76
2024/02/16 00:58:04;;;;;;;4.68;2.85;;;;;;;13.68;81.57;99299.66;5034372;28;20590;-78
2024/02/16 01:00:31;;;;;;;6.85;2.63;;;;;;;13.66;81.12;99296.28;5053010;28;20099;-75
2024/02/16 01:02:58;;;;;;;5.78;2.30;;;;;;;13.65;81.52;99300.72;5052125;28;20049;-81
2024/02/16 01:05:25;;;;;;;5.65;2.60;;;;;;;13.66;81.46;99298.94;5034458;28;20103;-77
2024/02/16 01:07:51;;;;;;;5.93;2.50;;;;;;;13.66;81.08;99298.94;5052018;28;20052;-76
2024/02/16 01:10:18;;;;;;;3.70;2.25;;;;;;;13.65;81.03;99292.78;5052100;28;20079;-77
2024/02/16 01:12:45;;;;;;;7.72;2.40;;;;;;;13.66;81.02;99280.44;5052063;28;20079;-77
2024/02/16 01:15:12;;;;;;;5.45;2.67;;;;;;;13.68;81.12;99289.06;5051870;28;20132;-76
2024/02/16 01:17:39;;;;;;;6.85;2.75;;;;;;;13.66;80.60;99283.94;5051307;28;20490;-78
2024/02/16 01:20:10;;;;;;;7.05;2.30;;;;;;;13.67;81.33;99288.25;5051527;28;20551;-77
2024/02/16 01:22:38;;;;;;;6.35;2.50;;;;;;;13.67;80.97;99276.81;5051585;28;20397;-76
2024/02/16 01:25:07;;;;;;;5.60;3.15;;;;;;;13.67;80.86;99268.88;5051158;28;20565;-79
2024/02/16 01:27:35;;;;;;;9.40;2.53;;;;;;;13.69;81.17;99272.25;5032561;28;20103;-78
2024/02/16 01:30:02;;;;;;;4.35;2.35;;;;;;;13.66;80.60;99278.63;5051102;28;20056;-75
2024/02/16 01:32:30;;;;;;;6.38;2.80;;;;;;;13.67;80.59;99276.81;5051186;28;20128;-75
2024/02/16 01:34:57;;;;;;;6.28;2.55;;;;;;;13.67;80.74;99271.53;5033353;28;20088;-77
2024/02/16 01:37:24;;;;;;;6.00;2.45;;;;;;;13.67;80.55;99274.16;5033163;28;20061;-74
2024/02/16 01:39:51;;;;;;;8.43;2.53;;;;;;;13.66;80.73;99262.78;5051022;28;20053;-76
2024/02/16 01:42:19;;;;;;;4.00;2.53;;;;;;;13.66;80.88;99268.06;5051075;28;20045;-74
2024/02/16 01:44:46;;;;;;;4.38;2.25;;;;;;;13.66;80.04;99262.78;5051161;28;20053;-77
2024/02/16 01:47:14;;;;;;;4.35;2.20;;;;;;;13.67;80.76;99258.31;5051050;28;20383;-73
2024/02/16 01:49:40;;;;;;;4.60;2.50;;;;;;;13.66;80.45;99252.19;5050917;28;20092;-76
2024/02/16 01:52:07;;;;;;;4.18;2.38;;;;;;;13.70;80.47;99259.88;5050806;28;20098;-73
2024/02/16 01:54:34;;;;;;;3.33;2.45;;;;;;;13.66;80.12;99244.25;5050861;28;20096;-75
2024/02/16 01:57:01;;;;;;;4.97;2.25;;;;;;;13.66;79.83;99253.97;5050487;28;20556;-78
2024/02/16 01:59:28;;;;;;;3.95;2.17;;;;;;;13.65;80.00;99247.00;5050673;28;20048;-77
2024/02/16 02:01:55;;;;;;;5.97;2.50;;;;;;;13.64;79.49;99248.81;5050737;28;20601;-77
2024/02/16 02:04:22;;;;;;;7.03;2.80;;;;;;;13.64;79.54;99250.63;5051003;28;20136;-76
2024/02/16 02:06:49;;;;;;;4.63;2.25;;;;;;;13.62;79.36;99249.91;5050496;28;20044;-76
2024/02/16 02:09:16;;;;;;;5.93;2.40;;;;;;;13.62;79.74;99252.53;5050607;28;20516;-77
2024/02/16 02:11:44;;;;;;;4.57;2.30;;;;;;;13.62;79.19;99245.47;5050421;28;20552;-77
2024/02/16 02:14:11;;;;;;;6.25;2.75;;;;;;;13.63;79.78;99247.13;5050692;28;20149;-74
2024/02/16 02:16:38;;;;;;;7.53;2.45;;;;;;;13.62;79.37;99242.81;5050439;28;20053;-76
2024/02/16 02:19:20;;;;;;;8.63;2.92;;;;;;;13.64;79.23;99243.53;5050687;28;20076;-77
2024/02/16 02:21:47;;;;;;;4.88;3.03;;;;;;;13.64;79.48;99243.53;5032901;28;20056;-76
2024/02/16 02:24:13;;;;;;;6.43;2.70;;;;;;;13.63;79.39;99244.50;5050642;28;20052;-78
2024/02/16 02:26:41;;;;;;;5.13;2.30;;;;;;;13.63;78.98;99236.56;5050419;28;20469;-75
2024/02/16 02:29:07;;;;;;;4.43;2.08;;;;;;;13.62;79.06;99237.53;5032339;28;20152;-77
2024/02/16 02:31:34;;;;;;;7.30;2.80;;;;;;;13.61;79.19;99229.69;5050345;28;20053;-75
2024/02/16 02:34:01;;;;;;;7.38;3.40;;;;;;;13.59;78.96;99229.81;5032785;28;20102;-75
2024/02/16 02:36:28;;;;;;;6.30;2.47;;;;;;;13.59;79.05;99229.81;5050162;28;20079;-74
2024/02/16 02:38:55;;;;;;;5.72;2.33;;;;;;;13.58;79.13;99222.84;5053961;28;20051;-73
2024/02/16 02:41:21;;;;;;;3.58;2.53;;;;;;;13.57;78.91;99234.38;5036735;28;20084;-75
2024/02/16 02:43:48;;;;;;;9.35;2.40;;;;;;;13.58;79.63;99212.28;5054490;28;20053;-74
2024/02/16 02:46:16;;;;;;;6.20;2.95;;;;;;;13.59;79.09;99213.09;5036498;28;20106;-76
2024/02/16 02:48:44;;;;;;;5.13;1.95;;;;;;;13.58;78.32;99201.69;5054496;28;20048;-73
2024/02/16 02:51:16;;;;;;;4.60;2.40;;;;;;;13.61;78.75;99211.19;5054187;28;20142;-74
2024/02/16 02:53:43;;;;;;;6.05;2.58;;;;;;;13.62;78.44;99213.72;5054756;28;20056;-74
2024/02/16 02:56:09;;;;;;;5.90;2.50;;;;;;;13.64;78.92;99208.31;5054681;28;20456;-79
2024/02/16 02:58:39;;;;;;;9.25;2.65;;;;;;;13.65;77.03;99208.16;5054380;28;20041;-74
2024/02/16 03:01:07;;;;;;;6.22;2.38;;;;;;;13.66;78.88;99194.00;5054261;28;20057;-77
2024/02/16 03:03:35;;;;;;;6.20;2.35;;;;;;;13.66;78.74;99186.06;5036301;28;20053;-74
2024/02/16 03:06:03;;;;;;;2.95;1.90;;;;;;;13.67;78.87;99190.38;5053957;28;20053;-75
2024/02/16 03:08:30;;;;;;;6.03;2.67;;;;;;;13.67;78.29;99194.81;5054022;28;20052;-74
2024/02/16 03:11:00;;;;;;;4.00;2.42;;;;;;;13.67;78.61;99193.03;5053986;28;20124;-77
2024/02/16 03:13:27;;;;;;;5.53;2.67;;;;;;;13.68;78.38;99192.06;5054021;28;20486;-75
2024/02/16 03:15:53;;;;;;;5.45;2.47;;;;;;;13.69;78.77;99190.28;5036417;28;20110;-75
2024/02/16 03:18:20;;;;;;;4.47;2.42;;;;;;;13.68;78.40;99186.78;5035852;28;20088;-75
2024/02/16 03:20:48;;;;;;;8.45;2.30;;;;;;;13.70;78.54;99193.75;5053678;28;20045;-75
2024/02/16 03:23:16;;;;;;;5.88;2.25;;;;;;;13.68;78.66;99192.06;5053893;28;20057;-74
2024/02/16 03:25:43;;;;;;;4.55;2.30;;;;;;;13.69;78.00;99187.63;5035857;28;20053;-74
2024/02/16 03:28:12;;;;;;;3.47;2.03;;;;;;;13.67;76.61;99189.53;5053650;28;20045;-73
2024/02/16 03:30:40;;;;;;;5.65;2.70;;;;;;;13.70;78.43;99186.66;5053725;28;20425;-74
2024/02/16 03:33:08;;;;;;;7.65;2.42;;;;;;;13.72;78.38;99192.66;5053298;28;20059;-75
2024/02/16 03:35:36;;;;;;;7.85;2.40;;;;;;;13.73;78.37;99193.50;5053611;28;20091;-75
2024/02/16 03:38:03;;;;;;;2.90;2.15;;;;;;;13.71;78.01;99192.81;5053221;28;20648;-81
2024/02/16 03:40:30;;;;;;;5.95;2.15;;;;;;;13.71;77.92;99196.28;5035647;28;20085;-74
2024/02/16 03:42:57;;;;;;;6.05;2.65;;;;;;;13.70;77.81;99196.38;5053549;28;20409;-81
2024/02/16 03:45:24;;;;;;;4.97;2.40;;;;;;;13.70;77.83;99191.09;5053272;28;20053;-76
2024/02/16 03:47:54;;;;;;;3.83;2.50;;;;;;;13.68;78.10;99201.78;5035773;28;20726;-73
2024/02/16 03:50:22;;;;;;;3.70;2.17;;;;;;;13.67;77.77;99192.19;5052729;28;20053;-74
2024/02/16 03:52:49;;;;;;;6.07;2.92;;;;;;;13.66;77.84;99194.00;5053313;28;20080;-76
2024/02/16 03:55:17;;;;;;;4.57;2.28;;;;;;;13.64;77.73;99195.91;5053117;28;20048;-73
2024/02/16 03:57:44;;;;;;;5.07;2.70;;;;;;;13.61;77.35;99196.16;5052891;28;20106;-78
2024/02/16 04:00:12;;;;;;;5.65;2.47;;;;;;;13.61;77.96;99195.31;5052993;28;20099;-73
2024/02/16 04:02:39;;;;;;;8.18;2.65;;;;;;;13.60;77.81;99197.13;5053219;28;20409;-77
2024/02/16 04:05:07;;;;;;;5.10;2.10;;;;;;;13.57;77.73;99186.78;5053217;28;20064;-73
2024/02/16 04:07:35;;;;;;;6.10;2.45;;;;;;;13.56;76.90;99190.38;5052702;28;20140;-75
2024/02/16 04:10:02;;;;;;;7.60;2.53;;;;;;;13.57;77.12;99188.59;5052852;28;20049;-73
2024/02/16 04:12:29;;;;;;;4.90;2.58;;;;;;;13.57;77.64;99186.78;5034602;28;20049;-75
2024/02/16 04:14:55;;;;;;;4.25;2.30;;;;;;;13.58;77.67;99190.28;5052699;28;20049;-74
2024/02/16 04:17:22;;;;;;;5.22;2.10;;;;;;;13.58;77.64;99198.22;5052457;28;20045;-74
2024/02/16 04:19:49;;;;;;;8.20;2.80;;;;;;;13.58;77.73;99196.41;5052757;28;20402;-74
2024/02/16 04:22:16;;;;;;;6.68;2.28;;;;;;;13.57;77.58;99200.00;5035042;28;20053;-78
2024/02/16 04:24:42;;;;;;;8.90;2.50;;;;;;;13.56;77.35;99193.03;5052531;28;20892;-74
2024/02/16 04:27:09;;;;;;;4.97;2.22;;;;;;;13.52;76.63;99196.88;5052240;28;20049;-74
2024/02/16 04:29:36;;;;;;;4.40;2.30;;;;;;;13.52;77.49;99195.09;5052413;28;20063;-78
2024/02/16 04:32:02;;;;;;;4.72;2.40;;;;;;;13.51;76.90;99181.97;5052487;28;20045;-75
2024/02/16 04:34:29;;;;;;;6.13;2.50;;;;;;;13.50;77.32;99188.25;5052523;28;20049;-74
2024/02/16 04:36:56;;;;;;;4.80;2.38;;;;;;;13.48;77.98;99183.06;5051964;28;20080;-76
2024/02/16 04:39:23;;;;;;;5.40;2.58;;;;;;;13.47;77.97;99181.38;5052250;28;20114;-75
2024/02/16 04:41:51;;;;;;;5.13;2.60;;;;;;;13.45;77.81;99174.50;5052265;28;20136;-75
2024/02/16 04:44:18;;;;;;;4.07;2.40;;;;;;;13.46;78.03;99174.38;5052401;28;20055;-73
2024/02/16 04:46:45;;;;;;;6.95;2.33;;;;;;;13.44;78.35;99171.03;5051938;28;20114;-75
2024/02/16 04:49:11;;;;;;;5.50;2.13;;;;;;;13.45;78.01;99169.22;5052275;28;20094;-75
2024/02/16 04:51:40;;;;;;;8.05;2.53;;;;;;;13.43;77.94;99178.09;5051848;28;20441;-74
2024/02/16 04:54:07;;;;;;;6.15;2.40;;;;;;;13.43;77.90;99188.66;5052106;28;20505;-77
2024/02/16 04:56:33;;;;;;;5.13;2.20;;;;;;;13.44;78.04;99192.16;5051971;28;20077;-74
2024/02/16 04:59:00;;;;;;;3.30;2.25;;;;;;;13.46;78.07;99176.19;5034370;28;20148;-76
2024/02/16 05:01:28;;;;;;;2.17;1.80;;;;;;;13.46;77.62;99194.69;5050909;28;20501;-75
2024/02/16 05:03:55;;;;;;;5.45;2.33;;;;;;;13.45;77.70;99177.97;5051947;28;20088;-73
2024/02/16 05:06:24;;;;;;;3.55;2.10;;;;;;;13.48;78.22;99187.50;5051275;28;20045;-74
2024/02/16 05:08:51;;;;;;;5.10;2.58;;;;;;;13.48;77.55;99188.34;5051671;28;20088;-74
2024/02/16 05:11:18;;;;;;;4.43;2.20;;;;;;;13.49;77.25;99178.63;5034025;28;20139;-77
2024/02/16 05:13:45;;;;;;;5.32;2.28;;;;;;;13.52;77.94;99173.09;5034090;28;20043;-76
2024/02/16 05:16:12;;;;;;;4.50;2.30;;;;;;;13.53;78.21;99177.44;5033854;28;20041;-78
2024/02/16 05:18:40;;;;;;;4.53;2.10;;;;;;;13.53;77.94;99185.38;5051616;28;20059;-78
2024/02/16 05:21:07;;;;;;;6.18;1.88;;;;;;;13.52;77.71;99181.88;5051320;28;20063;-77
2024/02/16 05:23:34;;;;;;;6.43;2.50;;;;;;;13.54;77.76;99189.69;5051363;28;20091;-76
2024/02/16 05:26:00;;;;;;;7.70;2.50;;;;;;;13.54;77.76;99185.22;5051464;28;20045;-76
2024/02/16 05:28:27;;;;;;;6.10;2.45;;;;;;;13.57;77.98;99186.78;5051239;28;20060;-75
2024/02/16 05:30:55;;;;;;;4.65;1.95;;;;;;;13.59;77.90;99192.81;5033880;28;20079;-75
2024/02/16 05:33:22;;;;;;;4.43;2.42;;;;;;;13.62;77.72;99194.34;5051503;28;20148;-77
2024/02/16 05:35:54;;;;;;;4.30;2.60;;;;;;;13.62;77.41;99192.56;5033580;28;20045;-79
2024/02/16 05:38:32;;;;;;;4.22;2.35;;;;;;;13.65;77.51;99186.19;5051236;28;20061;-74
2024/02/16 05:40:59;;;;;;;4.30;2.00;;;;;;;13.67;77.19;99190.38;5051362;28;20045;-75
2024/02/16 05:43:26;;;;;;;3.25;1.73;;;;;;;13.68;77.22;99200.00;5051041;28;20560;-76
2024/02/16 05:45:53;;;;;;;2.67;1.58;;;;;;;13.71;77.28;99190.16;5051106;28;20057;-76
2024/02/16 05:48:19;;;;;;;3.30;2.10;;;;;;;13.71;76.63;99195.44;5033331;28;20136;-75
2024/02/16 05:50:46;;;;;;;3.88;2.17;;;;;;;13.73;77.10;99190.88;5033625;28;20037;-74
2024/02/16 05:53:13;;;;;;;4.57;2.10;;;;;;;13.73;76.92;99188.22;5051065;28;20049;-76
2024/02/16 05:55:40;;;;;;;5.75;2.35;;;;;;;13.74;77.10;99188.09;5051065;28;20056;-76
2024/02/16 05:58:06;;;;;;;5.97;2.30;;;;;;;13.77;77.00;99176.44;5032855;28;20450;-77
2024/02/16 06:00:34;;;;;;;3.58;2.17;;;;;;;13.79;77.19;99180.63;5033150;28;20053;-76
2024/02/16 06:03:02;;;;;;;7.10;2.00;;;;;;;13.79;76.67;99175.34;5050707;28;20133;-77
2024/02/16 06:05:29;;;;;;;5.55;1.90;;;;;;;13.81;77.08;99186.66;5050991;28;20041;-75
2024/02/16 06:07:57;;;;;;;4.70;2.20;;;;;;;13.84;76.98;99179.44;5050343;28;20137;-78
2024/02/16 06:10:24;;;;;;;4.32;2.10;;;;;;;13.83;76.41;99186.50;5050607;28;20490;-78
2024/02/16 06:12:50;;;;;;;4.65;1.95;;;;;;;13.85;76.94;99181.94;5050343;28;20059;-76
2024/02/16 06:15:17;;;;;;;5.00;2.38;;;;;;;13.85;76.74;99175.81;5050703;28;20064;-77
2024/02/16 06:17:44;;;;;;;5.85;1.90;;;;;;;13.85;77.00;99171.38;5032544;28;20041;-77
2024/02/16 06:20:11;;;;;;;4.78;2.25;;;;;;;13.84;76.94;99177.63;5050723;28;20053;-76
2024/02/16 06:22:38;;;;;;;5.60;2.40;;;;;;;13.84;76.67;99180.28;5050766;28;20487;-77
2024/02/16 06:25:05;;;;;;;5.30;2.33;;;;;;;13.83;76.67;99181.22;5050618;28;20057;-79
2024/02/16 06:27:32;;;;;;;4.88;2.10;;;;;;;13.83;77.09;99183.88;5050464;28;20060;-78
2024/02/16 06:29:59;;;;;;;3.50;1.83;;;;;;;13.81;76.78;99191.94;5050462;28;20057;-77
2024/02/16 06:32:27;;;;;;;5.15;2.05;;;;;;;13.80;76.99;99190.25;5050546;28;20080;-77
2024/02/16 06:34:54;;;;;;;4.95;2.05;;;;;;;13.79;76.16;99190.34;5050522;28;20624;-76
2024/02/16 06:37:21;;;;;;;2.67;1.95;;;;;;;13.78;76.56;99199.25;5032267;28;20089;-77
2024/02/16 06:39:47;;;;;;;3.03;2.25;;;;;;;13.79;76.71;99193.84;5050496;28;20171;-78
2024/02/16 06:42:14;;;;;;;5.03;2.10;;;;;;;13.79;76.48;99203.59;5050163;28;20053;-80
2024/02/16 06:44:41;;;;;;;4.15;2.33;;;;;;;13.78;76.61;99201.91;5050299;28;20497;-75
2024/02/16 06:47:08;;;;;;;6.05;2.38;;;;;;;13.78;76.33;99210.69;5050664;28;20049;-75
2024/02/16 06:49:34;;;;;;;3.72;2.15;;;;;;;13.79;76.80;99206.22;5050582;28;20131;-77
2024/02/16 06:52:01;;;;;;;3.03;2.00;;;;;;;13.79;76.75;99211.53;5050402;28;20053;-75
2024/02/16 06:54:28;;;;;;;5.90;2.20;;;;;;;13.79;76.96;99208.88;5049947;28;20048;-75
2024/02/16 06:56:55;;;;;;;6.15;1.90;;;;;;;13.79;76.80;99215.03;5032152;28;20052;-75
2024/02/16 06:59:22;;;;;;;3.67;2.05;;;;;;;13.79;77.12;99212.38;5050323;28;20094;-76
2024/02/16 07:01:48;;;;;;;8.13;2.10;;;;;;;13.80;77.32;99211.41;5049812;28;20125;-77
2024/02/16 07:04:15;;;;;;;2.97;2.08;;;;;;;13.81;77.44;99217.56;5049965;28;20049;-77
2024/02/16 07:06:42;;;;;;;5.80;2.35;;;;;;;13.83;77.65;99220.06;5049665;28;20063;-75
2024/02/16 07:09:09;;;;;;;4.93;2.20;;;;;;;13.84;77.81;99214.66;5050096;28;20045;-78
2024/02/16 07:11:36;;;;;;;8.43;2.40;;;;;;;13.85;77.32;99219.00;5050119;28;20049;-74
2024/02/16 07:14:06;;;;;;;5.30;2.10;;;;;;;13.86;77.46;99225.94;5049956;28;20513;-77
2024/02/16 07:16:32;;;;;;;3.45;1.95;;;;;;;13.88;77.68;99221.41;5049939;28;20088;-75
2024/02/16 07:18:59;;;;;;;4.28;2.00;;;;;;;13.91;77.12;99228.25;5050170;28;20808;-75
2024/02/16 07:21:26;;;;;;;4.43;2.17;;;;;;;13.92;77.37;99230.78;5050005;28;20100;-74
2024/02/16 07:23:53;;;;;;;4.10;2.30;;;;;;;13.96;77.82;99219.94;5050029;28;20053;-75
2024/02/16 07:26:20;;;;;;;5.93;2.17;;;;;;;13.99;77.85;99223.19;5035806;28;20107;-75
2024/02/16 07:28:46;;;;;;;5.63;2.40;;;;;;;14.02;77.55;99219.44;5036179;28;20131;-78
2024/02/16 07:31:14;;;;;;;3.47;2.00;;;;;;;14.04;77.86;99222.78;5053705;28;20497;-74
2024/02/16 07:33:41;;;;;;;5.93;2.42;;;;;;;14.06;77.70;99226.19;5053595;28;20590;-79
2024/02/16 07:36:08;;;;;;;4.13;1.95;;;;;;;14.07;77.55;99215.47;5035729;28;20048;-74
2024/02/16 07:38:35;;;;;;;8.02;2.50;;;;;;;14.10;77.43;99217.03;5053132;28;20087;-77
2024/02/16 07:41:02;;;;;;;4.85;1.98;;;;;;;14.14;77.56;99228.19;5053476;28;20049;-75
2024/02/16 07:43:33;;;;;;;3.65;2.38;;;;;;;14.16;77.18;99223.59;5053670;28;20056;-76
2024/02/16 07:46:00;;;;;;;5.45;1.98;;;;;;;14.20;77.82;99217.97;5053204;28;20095;-76
2024/02/16 07:48:26;;;;;;;4.68;2.10;;;;;;;14.24;77.46;99228.31;5035484;28;20053;-78
2024/02/16 07:50:54;;;;;;;5.47;2.00;;;;;;;14.26;77.23;99236.94;5052550;28;20053;-76
2024/02/16 07:53:20;;;;;;;4.82;2.30;;;;;;;14.28;77.20;99240.31;5052799;28;20040;-76
2024/02/16 07:55:47;;;;;;;2.85;1.98;;;;;;;14.29;77.63;99236.72;5053387;28;20060;-76
2024/02/16 07:58:14;;;;;;;3.25;2.03;;;;;;;14.30;77.04;99235.72;5053032;28;20081;-75
2024/02/16 08:00:40;;;;;;;3.80;2.20;;;;;;;14.32;77.38;99228.53;5053272;28;20080;-75
2024/02/16 08:03:07;;;;;;;6.22;2.60;;;;;;;14.35;77.20;99235.38;5053013;28;20134;-75
2024/02/16 08:05:35;;;;;;;4.63;2.10;;;;;;;14.35;77.19;99232.72;5035313;28;20103;-76
2024/02/16 08:08:03;;;;;;;4.03;2.50;;;;;;;14.36;77.21;99237.91;5052857;28;20118;-75
2024/02/16 08:10:29;;;;;;;6.60;2.30;;;;;;;14.38;77.39;99241.25;5053474;28;20053;-75
2024/02/16 08:12:56;;;;;;;5.55;2.28;;;;;;;14.38;76.82;99249.19;5053113;28;20119;-75
2024/02/16 08:15:23;;;;;;;3.90;2.05;;;;;;;14.39;77.29;99247.41;5052630;28;20135;-76
2024/02/16 08:17:51;;;;;;;3.13;2.03;;;;;;;14.39;76.99;99250.88;5052393;28;20043;-76
2024/02/16 08:20:18;;;;;;;4.57;2.20;;;;;;;14.42;77.15;99258.56;5052654;28;20080;-75
2024/02/16 08:22:45;;;;;;;7.20;2.47;;;;;;;14.42;77.13;99247.97;5035207;28;20045;-75
2024/02/16 08:25:12;;;;;;;3.92;2.65;;;;;;;14.45;77.57;99257.47;5052657;28;20408;-76
2024/02/16 08:27:38;;;;;;;2.92;2.17;;;;;;;14.45;77.14;99260.13;5052424;28;20476;-76
2024/02/16 08:30:08;;;;;;;3.63;2.20;;;;;;;14.45;77.11;99260.13;5052711;28;20067;-76
2024/02/16 08:32:35;;;;;;;5.57;2.65;;;;;;;14.48;77.25;99264.31;5052298;28;20045;-75
2024/02/16 08:35:03;;;;;;;5.80;3.00;;;;;;;14.46;76.94;99262.66;5052101;28;20057;-75
2024/02/16 08:37:30;;;;;;;4.07;2.40;;;;;;;14.48;77.35;99266.97;5052273;28;20080;-77
2024/02/16 08:39:57;;;;;;;3.95;2.17;;;;;;;14.49;77.50;99263.34;5052245;28;20076;-74
2024/02/16 08:42:23;;;;;;;4.43;2.40;;;;;;;14.51;77.61;99261.44;5052131;28;20072;-76
2024/02/16 08:44:50;;;;;;;4.07;2.50;;;;;;;14.54;77.92;99272.63;5052451;28;20076;-81
2024/02/16 08:47:17;;;;;;;7.80;2.80;;;;;;;14.54;77.39;99264.66;5051971;28;20049;-75
2024/02/16 08:49:44;;;;;;;4.82;2.20;;;;;;;14.58;77.77;99268.75;5052291;28;20429;-75
2024/02/16 08:52:11;;;;;;;3.78;2.70;;;;;;;14.61;77.77;99267.66;5052352;28;20056;-77
2024/02/16 08:54:37;;;;;;;6.53;2.63;;;;;;;14.65;77.76;99266.44;5034221;28;20417;-74
2024/02/16 08:57:05;;;;;;;5.25;2.60;;;;;;;14.68;77.45;99268.84;5052003;28;20087;-75
2024/02/16 08:59:34;;;;;;;4.90;2.85;;;;;;;14.71;77.75;99271.25;5051847;28;20052;-76
2024/02/16 09:02:01;;;;;;;4.28;2.50;;;;;;;14.76;77.90;99275.31;5051839;28;20049;-77
2024/02/16 09:04:27;;;;;;;8.05;3.50;;;;;;;14.79;77.83;99286.53;5051869;28;20095;-74
2024/02/16 09:06:54;;;;;;;9.07;2.85;;;;;;;14.83;77.08;99269.41;5051645;28;20142;-76
2024/02/16 09:09:21;;;;;;;4.68;3.10;;;;;;;14.87;77.61;99277.94;5051991;28;20056;-75
2024/02/16 09:11:47;;;;;;;9.05;3.47;;;;;;;14.92;77.58;99278.41;5051966;28;20053;-74
2024/02/16 09:14:14;;;;;;;4.28;2.72;;;;;;;14.95;77.69;99275.50;5051724;28;20148;-77
2024/02/16 09:16:40;;;;;;;5.55;2.58;;;;;;;14.97;77.13;99278.88;5051492;28;20057;-77
2024/02/16 09:19:07;;;;;;;6.07;2.67;;;;;;;14.99;77.50;99276.06;5051847;28;20045;-76
2024/02/16 09:21:34;;;;;;;5.65;3.00;;;;;;;14.99;77.11;99286.66;5033890;28;20048;-75
2024/02/16 09:24:01;;;;;;;10.27;3.20;;;;;;;15.02;77.24;99285.59;5051641;28;20049;-76
2024/02/16 09:26:33;;;;;;;8.52;3.20;;;;;;;15.03;77.18;99292.59;5051367;28;20096;-74
2024/02/16 09:29:00;;;;;;;4.03;2.60;;;;;;;15.05;77.45;99287.97;5051742;28;20056;-75
2024/02/16 09:31:27;;;;;;;9.57;3.10;;;;;;;15.07;77.37;99291.34;5033757;28;20093;-75
2024/02/16 09:33:53;;;;;;;5.93;3.03;;;;;;;15.09;77.31;99302.66;5033344;28;20088;-77
2024/02/16 09:36:21;;;;;;;6.60;2.95;;;;;;;15.12;77.62;99297.09;5051166;28;20136;-76
2024/02/16 09:38:48;;;;;;;7.32;2.70;;;;;;;15.13;77.15;99301.44;5051289;28;20061;-77
2024/02/16 09:41:17;;;;;;;7.20;2.97;;;;;;;15.15;77.26;99303.97;5051210;28;20056;-75
2024/02/16 09:43:44;;;;;;;5.00;2.88;;;;;;;15.17;77.45;99305.50;5050907;28;20105;-77
2024/02/16 09:46:10;;;;;;;5.30;3.30;;;;;;;15.20;77.39;99321.16;5051109;28;20072;-76
2024/02/16 09:48:40;;;;;;;5.90;3.00;;;;;;;15.21;76.25;99317.53;5050470;28;20040;-74
2024/02/16 09:51:08;;;;;;;7.47;2.75;;;;;;;15.26;77.50;99313.66;5033431;28;20497;-75
2024/02/16 09:53:35;;;;;;;5.63;3.20;;;;;;;15.27;77.41;99313.53;5051020;28;20140;-75
2024/02/16 09:56:04;;;;;;;5.50;3.28;;;;;;;15.29;77.42;99316.06;5050814;28;20131;-75
2024/02/16 09:58:31;;;;;;;4.63;2.88;;;;;;;15.33;77.52;99320.16;5050546;28;20143;-76
2024/02/16 10:00:58;;;;;;;5.60;3.30;;;;;;;15.34;77.66;99317.38;5051000;28;20052;-78
2024/02/16 10:03:28;;;;;;;5.95;3.60;;;;;;;15.36;76.99;99325.16;5050766;28;20052;-75
2024/02/16 10:06:24;;;;;;;7.38;3.45;;;;;;;15.34;73.91;99332.44;5033274;28;20678;-77
2024/02/16 10:08:56;;;;;;;6.30;4.05;;;;;;;15.36;75.64;99322.50;5020825;28;20052;-74
2024/02/16 10:11:27;;;;;;;7.93;4.05;;;;;;;15.39;76.71;99324.91;5051059;28;20071;-75
2024/02/16 10:13:58;;;;;;;11.45;3.97;;;;;;;15.36;75.65;99328.66;5050745;28;20057;-76
2024/02/16 10:16:25;;;;;;;8.43;3.90;;;;;;;15.37;77.27;99335.66;5050678;28;20497;-80
2024/02/16 10:18:55;;;;;;;8.75;3.78;;;;;;;15.36;75.32;99359.63;5050826;28;20045;-75
2024/02/16 10:21:27;;;;;;;6.80;3.65;;;;;;;15.35;76.51;99350.88;5050585;28;20049;-74
2024/02/16 10:24:08;;;;;;;8.23;3.37;;;;;;;15.35;74.77;99352.66;5050755;28;20055;-75
2024/02/16 10:26:38;;;;;;;6.57;3.65;;;;;;;15.39;77.24;99375.31;5050478;28;20047;-76
2024/02/16 10:29:10;;;;;;;5.88;3.25;;;;;;;15.39;76.64;99385.91;5050745;28;20048;-77
2024/02/16 10:31:37;;;;;;;6.95;3.72;;;;;;;15.42;77.51;99368.91;5050439;28;20110;-77
2024/02/16 10:34:05;;;;;;;7.90;3.92;;;;;;;15.46;77.79;99379.13;5032621;28;20041;-75
2024/02/16 10:36:35;;;;;;;15.40;4.15;;;;;;;15.47;77.54;99386.13;5050387;28;20493;-75
2024/02/16 10:39:04;;;;;;;6.07;4.00;;;;;;;15.50;77.33;99392.97;5050186;28;20088;-75
2024/02/16 10:41:38;;;;;;;7.68;3.78;;;;;;;15.53;76.20;99394.53;5032903;28;20049;-78
2024/02/16 10:44:05;;;;;;;8.70;4.47;;;;;;;15.57;77.52;99383.53;5032737;28;20049;-74
2024/02/16 10:46:33;;;;;;;5.65;3.53;;;;;;;15.59;77.38;99386.06;5050280;28;20414;-74
2024/02/16 10:49:05;;;;;;;6.65;4.50;;;;;;;15.63;77.28;99390.97;5050212;28;20100;-76
2024/02/16 10:51:45;;;;;;;8.30;4.22;;;;;;;15.64;74.57;99397.13;5032974;28;20084;-75
2024/02/16 10:54:15;;;;;;;9.63;4.35;;;;;;;15.69;76.63;99394.06;5032688;28;20598;-75
2024/02/16 10:56:42;;;;;;;8.65;4.70;;;;;;;15.70;77.10;99401.91;5049895;28;20089;-79
2024/02/16 10:59:10;;;;;;;9.30;4.03;;;;;;;15.74;76.98;99392.72;5052145;28;20124;-75
2024/02/16 11:01:38;;;;;;;8.70;4.43;;;;;;;15.75;76.65;99394.38;5036784;28;20049;-75
2024/02/16 11:04:08;;;;;;;8.02;4.10;;;;;;;15.76;76.36;99403.19;5054216;28;20053;-79
2024/02/16 11:07:18;;;;;;;11.93;4.63;;;;;;;15.75;73.21;99401.53;5054022;28;20514;-77
2024/02/16 11:09:46;;;;;;;11.50;4.68;;;;;;;15.84;76.47;99410.50;5015814;28;20053;-77
2024/02/16 11:12:17;;;;;;;7.65;4.07;;;;;;;15.83;76.31;99412.34;5053899;28;20064;-77
2024/02/16 11:14:46;;;;;;;7.63;3.83;;;;;;;15.83;75.37;99406.19;5054022;28;20049;-75
2024/02/16 11:17:15;;;;;;;10.85;4.97;;;;;;;15.84;76.13;99408.69;5053833;28;20146;-76
2024/02/16 11:19:45;;;;;;;9.07;4.85;;;;;;;15.85;75.39;99405.06;5053849;28;20236;-78
2024/02/16 11:22:17;;;;;;;9.57;4.43;;;;;;;15.87;75.34;99415.56;5036466;28;20053;-75
2024/02/16 11:24:49;;;;;;;9.57;4.63;;;;;;;15.92;76.20;99408.03;5053760;28;20401;-76
2024/02/16 11:27:21;;;;;;;9.32;4.18;;;;;;;15.95;76.62;99410.47;5053359;28;20099;-76
2024/02/16 11:29:49;;;;;;;8.33;4.40;;;;;;;15.99;76.70;99417.19;5053782;28;20495;-76
2024/02/16 11:32:18;;;;;;;10.27;4.18;;;;;;;15.98;75.32;99410.22;5053428;28;20083;-76
2024/02/16 11:34:45;;;;;;;11.10;4.40;;;;;;;16.02;74.26;99438.19;5035859;28;20515;-77
2024/02/16 11:37:14;;;;;;;9.02;4.45;;;;;;;16.04;75.92;99427.44;5035609;28;20045;-74